createdAt,value
2023-04-18T00:00:21.945Z,100094.16
2023-04-18T00:02:52.560Z,100090.97
2023-04-18T00:05:24.207Z,100097.41
2023-04-18T00:07:55.149Z,100095.56
2023-04-18T00:10:31.784Z,100102.78
2023-04-18T00:13:04.859Z,100091.53
2023-04-18T00:15:34.983Z,100094.72
2023-04-18T00:18:12.388Z,100086.41
2023-04-18T00:20:41.911Z,100084.00
2023-04-18T00:23:13.453Z,100089.94
2023-04-18T00:25:48.228Z,100089.94
2023-04-18T00:28:16.217Z,100092.34
2023-04-18T00:30:49.864Z,100107.63
2023-04-18T00:33:26.481Z,100100.44
2023-04-18T00:36:03.613Z,100099.34
2023-04-18T00:38:39.876Z,100096.66
2023-04-18T00:41:18.436Z,100102.84
2023-04-18T00:43:49.097Z,100099.34
2023-04-18T00:46:20.014Z,100102.84
2023-04-18T00:48:48.967Z,100095.06
2023-04-18T00:51:23.656Z,100102.84
2023-04-18T00:53:55.482Z,100100.97
2023-04-18T00:56:23.144Z,100105.25
2023-04-18T00:58:53.706Z,100103.34
2023-04-18T01:01:27.461Z,100100.69
2023-04-18T01:03:58.158Z,100091.84
2023-04-18T01:06:26.677Z,100096.41
2023-04-18T01:08:58.778Z,100087.03
2023-04-18T01:11:26.398Z,100092.91
2023-04-18T01:14:08.036Z,100091.59
2023-04-18T01:16:42.468Z,100086.22
2023-04-18T01:19:12.536Z,100085.44
2023-04-18T01:21:45.800Z,100090.53
2023-04-18T01:24:23.506Z,100088.91
2023-04-18T01:27:00.035Z,100084.63
2023-04-18T01:29:30.332Z,100084.63
2023-04-18T01:32:10.400Z,100090.00
2023-04-18T01:34:44.176Z,100087.59
2023-04-18T01:37:18.917Z,100083.03
2023-04-18T01:39:51.655Z,100092.19
2023-04-18T01:42:27.682Z,100091.34
2023-04-18T01:44:57.902Z,100081.19
2023-04-18T01:47:25.772Z,100086.28
2023-04-18T01:49:56.496Z,100088.97
2023-04-18T01:52:27.245Z,100086.28
2023-04-18T01:54:58.508Z,100083.34
2023-04-18T01:57:29.586Z,100084.94
2023-04-18T02:00:07.251Z,100084.16
2023-04-18T02:02:35.942Z,100091.13
2023-04-18T02:05:14.210Z,100078.78
2023-04-18T02:07:47.149Z,100080.97
2023-04-18T02:10:23.470Z,100086.31
2023-04-18T02:13:00.478Z,100086.31
2023-04-18T02:15:35.296Z,100090.06
2023-04-18T02:18:16.632Z,100081.75
2023-04-18T02:20:50.937Z,100093.84
2023-04-18T02:23:27.201Z,100087.38
2023-04-18T02:26:06.723Z,100090.66
2023-04-18T02:28:39.031Z,100093.84
2023-04-18T02:31:13.033Z,100096.81
2023-04-18T02:33:49.349Z,100095.22
2023-04-18T02:36:25.782Z,100096.28
2023-04-18T02:39:00.221Z,100101.37
2023-04-18T02:41:34.476Z,100096.00
2023-04-18T02:44:11.248Z,100101.37
2023-04-18T02:46:42.753Z,100109.44
2023-04-18T02:49:13.257Z,100105.94
2023-04-18T02:51:41.065Z,100105.94
2023-04-18T02:54:15.397Z,100105.13
2023-04-18T02:56:46.174Z,100098.97
2023-04-18T02:59:18.576Z,100101.94
2023-04-18T03:01:49.536Z,100101.94
2023-04-18T03:04:17.191Z,100101.94
2023-04-18T03:06:47.686Z,100105.13
2023-04-18T03:09:22.045Z,100109.69
2023-04-18T03:11:50.059Z,100100.84
2023-04-18T03:14:20.487Z,100106.50
2023-04-18T03:16:55.584Z,100108.09
2023-04-18T03:19:26.995Z,100098.16
2023-04-18T03:22:03.504Z,100104.63
2023-04-18T03:24:37.603Z,100105.41
2023-04-18T03:27:14.106Z,100109.19
2023-04-18T03:29:51.453Z,100108.37
2023-04-18T03:32:27.772Z,100105.69
2023-04-18T03:35:04.727Z,100101.69
2023-04-18T03:37:45.072Z,100104.66
2023-04-18T03:40:22.025Z,100113.22
2023-04-18T03:42:59.093Z,100112.41
2023-04-18T03:45:32.542Z,100119.38
2023-04-18T03:48:00.528Z,100116.97
2023-04-18T03:50:31.558Z,100111.63
2023-04-18T03:53:08.987Z,100121.56
2023-04-18T03:55:45.416Z,100120.22
2023-04-18T03:58:18.490Z,100128.25
2023-04-18T04:00:52.013Z,100127.47
2023-04-18T04:03:28.746Z,100138.19
2023-04-18T04:06:02.471Z,100132.81
2023-04-18T04:08:39.180Z,100145.16
2023-04-18T04:11:10.426Z,100145.94
2023-04-18T04:13:46.303Z,100145.41
2023-04-18T04:16:20.447Z,100147.81
2023-04-18T04:18:51.924Z,100152.34
2023-04-18T04:21:31.293Z,100159.81
2023-04-18T04:24:02.101Z,100160.34
2023-04-18T04:26:35.507Z,100149.56
2023-04-18T04:29:05.294Z,100152.78
2023-04-18T04:31:44.742Z,100151.16
2023-04-18T04:34:19.402Z,100152.47
2023-04-18T04:36:53.618Z,100159.19
2023-04-18T04:39:29.035Z,100164.50
2023-04-18T04:42:04.169Z,100162.34
2023-04-18T04:44:43.237Z,100166.37
2023-04-18T04:47:21.297Z,100159.09
2023-04-18T04:49:52.347Z,100170.34
2023-04-18T04:52:25.968Z,100173.56
2023-04-18T04:55:04.311Z,100175.97
2023-04-18T04:57:35.232Z,100172.47
2023-04-18T05:00:09.596Z,100177.84
2023-04-18T05:02:37.193Z,100176.75
2023-04-18T05:05:08.740Z,100169.78
2023-04-18T05:07:41.974Z,100168.19
2023-04-18T05:10:10.014Z,100178.94
2023-04-18T05:12:40.639Z,100170.59
2023-04-18T05:15:16.920Z,100173.56
2023-04-18T05:17:47.486Z,100171.38
2023-04-18T05:20:18.429Z,100179.97
2023-04-18T05:22:49.340Z,100185.03
2023-04-18T05:25:20.180Z,100178.59
2023-04-18T05:27:53.931Z,100181.00
2023-04-18T05:30:22.383Z,100183.41
2023-04-18T05:32:52.316Z,100182.84
2023-04-18T05:35:30.267Z,100183.63
2023-04-18T05:38:07.854Z,100180.69
2023-04-18T05:40:36.474Z,100185.47
2023-04-18T05:43:07.250Z,100184.41
2023-04-18T05:45:37.200Z,100187.91
2023-04-18T05:48:18.045Z,100186.28
2023-04-18T05:50:48.674Z,100189.25
2023-04-18T05:53:16.656Z,100191.44
2023-04-18T05:55:47.887Z,100188.75
2023-04-18T05:58:18.662Z,100193.59
2023-04-18T06:00:52.540Z,100191.19
2023-04-18T06:03:24.137Z,100197.06
2023-04-18T06:05:55.866Z,100188.22
2023-04-18T06:08:31.829Z,100194.94
2023-04-18T06:11:02.027Z,100189.56
2023-04-18T06:13:32.187Z,100199.81
2023-04-18T06:16:04.204Z,100196.56
2023-04-18T06:18:38.063Z,100205.66
2023-04-18T06:21:05.740Z,100207.84
2023-04-18T06:23:39.465Z,100207.84
2023-04-18T06:26:10.215Z,100211.62
2023-04-18T06:28:43.653Z,100221.28
2023-04-18T06:31:15.942Z,100222.34
2023-04-18T06:33:57.430Z,100220.72
2023-04-18T06:36:25.053Z,100215.66
2023-04-18T06:38:58.881Z,100226.69
2023-04-18T06:41:36.091Z,100216.50
2023-04-18T06:44:10.512Z,100219.44
2023-04-18T06:46:43.334Z,100224.03
2023-04-18T06:49:14.922Z,100224.56
2023-04-18T06:51:50.430Z,100223.53
2023-04-18T06:54:27.675Z,100228.09
2023-04-18T06:56:58.039Z,100229.72
2023-04-18T06:59:26.291Z,100224.34
2023-04-18T07:01:59.379Z,100227.53
2023-04-18T07:04:37.382Z,100234.00
2023-04-18T07:07:12.174Z,100234.25
2023-04-18T07:09:42.340Z,100236.41
2023-04-18T07:12:15.352Z,100235.31
2023-04-18T07:14:44.628Z,100232.12
2023-04-18T07:17:18.698Z,100233.72
2023-04-18T07:20:00.637Z,100242.84
2023-04-18T07:22:37.074Z,100245.00
2023-04-18T07:25:14.001Z,100244.44
2023-04-18T07:27:43.811Z,100254.37
2023-04-18T07:30:14.673Z,100245.00
2023-04-18T07:32:42.313Z,100255.47
2023-04-18T07:35:13.350Z,100250.91
2023-04-18T07:37:40.849Z,100260.03
2023-04-18T07:40:10.219Z,100258.94
2023-04-18T07:42:44.344Z,100267.00
2023-04-18T07:45:18.163Z,100258.16
2023-04-18T07:47:52.366Z,100266.47
2023-04-18T07:50:22.952Z,100271.81
2023-04-18T07:52:53.204Z,100273.44
2023-04-18T07:55:26.692Z,100271.81
2023-04-18T07:57:55.647Z,100273.44
2023-04-18T08:00:29.712Z,100273.44
2023-04-18T08:02:57.867Z,100269.97
2023-04-18T08:05:25.549Z,100270.47
2023-04-18T08:07:58.380Z,100275.03
2023-04-18T08:10:26.025Z,100287.38
2023-04-18T08:12:57.988Z,100284.19
2023-04-18T08:15:34.511Z,100281.50
2023-04-18T08:18:05.338Z,100298.13
2023-04-18T08:20:39.657Z,100292.75
2023-04-18T08:23:14.178Z,100295.97
2023-04-18T08:25:44.873Z,100299.97
2023-04-18T08:28:15.251Z,100299.41
2023-04-18T08:30:49.552Z,100295.63
2023-04-18T08:33:16.481Z,100306.62
2023-04-18T08:35:52.088Z,100303.69
2023-04-18T08:38:23.801Z,100300.69
2023-04-18T08:40:57.044Z,100302.03
2023-04-18T08:43:24.122Z,100300.66
2023-04-18T08:45:55.003Z,100298.22
2023-04-18T08:48:28.410Z,100303.84
2023-04-18T08:51:06.643Z,100300.59
2023-04-18T08:53:40.083Z,100308.09
2023-04-18T08:56:15.620Z,100310.50
2023-04-18T08:58:49.227Z,100306.97
2023-04-18T09:01:24.730Z,100306.41
2023-04-18T09:03:56.956Z,100315.53
2023-04-18T09:06:24.356Z,100308.78
2023-04-18T09:09:05.024Z,100318.16
2023-04-18T09:11:37.575Z,100313.31
2023-04-18T09:14:11.981Z,100318.13
2023-04-18T09:16:48.693Z,100317.59
2023-04-18T09:19:21.491Z,100320.78
2023-04-18T09:22:03.263Z,100327.72
2023-04-18T09:24:41.234Z,100327.44
2023-04-18T09:27:16.988Z,100333.59
2023-04-18T09:29:58.122Z,100327.12
2023-04-18T09:32:42.720Z,100326.06
2023-04-18T09:35:45.121Z,100329.25
2023-04-18T09:38:15.504Z,100323.91
2023-04-18T09:41:05.734Z,100320.94
2023-04-18T09:43:36.185Z,100325.25
2023-04-18T09:46:12.958Z,100328.75
2023-04-18T09:48:43.305Z,100332.75
2023-04-18T09:51:18.034Z,100327.09
2023-04-18T09:53:47.930Z,100336.75
2023-04-18T09:56:30.567Z,100329.22
2023-04-18T09:59:15.704Z,100323.03
2023-04-18T10:01:44.813Z,100333.50
2023-04-18T10:04:18.913Z,100323.84
2023-04-18T10:06:52.109Z,100323.28
2023-04-18T10:09:21.863Z,100324.87
2023-04-18T10:11:50.756Z,100324.87
2023-04-18T10:14:23.330Z,100328.66
2023-04-18T10:16:59.911Z,100327.28
2023-04-18T10:19:38.078Z,100333.97
2023-04-18T10:22:08.013Z,100329.09
2023-04-18T10:24:56.104Z,100329.66
2023-04-18T10:28:06.456Z,100330.16
2023-04-18T10:30:52.981Z,100330.69
2023-04-18T10:33:43.019Z,100327.69
2023-04-18T10:36:19.733Z,100331.72
2023-04-18T10:38:47.985Z,100334.41
2023-04-18T10:41:25.830Z,100323.09
2023-04-18T10:44:08.852Z,100330.34
2023-04-18T10:46:43.817Z,100334.63
2023-04-18T10:49:21.341Z,100332.19
2023-04-18T10:51:55.473Z,100332.19
2023-04-18T10:54:57.060Z,100326.25
2023-04-18T10:57:37.651Z,100328.94
2023-04-18T11:00:06.448Z,100326.50
2023-04-18T11:02:34.454Z,100324.63
2023-04-18T11:05:04.140Z,100334.56
2023-04-18T11:07:44.468Z,100327.91
2023-04-18T11:10:14.569Z,100327.91
2023-04-18T11:12:44.705Z,100329.50
2023-04-18T11:15:19.030Z,100330.00
2023-04-18T11:18:06.134Z,100329.72
2023-04-18T11:20:46.900Z,100319.47
2023-04-18T11:23:19.399Z,100320.56
2023-04-18T11:25:52.131Z,100322.97
2023-04-18T11:28:22.932Z,100330.75
2023-04-18T11:31:00.468Z,100328.87
2023-04-18T11:33:33.817Z,100333.16
2023-04-18T11:36:10.260Z,100334.25
2023-04-18T11:38:43.523Z,100337.44
2023-04-18T11:41:22.817Z,100343.34
2023-04-18T11:43:58.944Z,100329.38
2023-04-18T11:46:42.732Z,100332.59
2023-04-18T11:49:31.599Z,100331.78
2023-04-18T11:52:00.015Z,100340.66
2023-04-18T11:54:46.901Z,100337.69
2023-04-18T11:57:23.762Z,100333.38
2023-04-18T12:00:02.812Z,100329.91
2023-04-18T12:02:51.833Z,100328.81
2023-04-18T12:05:32.859Z,100332.31
2023-04-18T12:08:13.986Z,100336.63
2023-04-18T12:10:48.215Z,100330.41
2023-04-18T12:13:15.368Z,100335.78
2023-04-18T12:15:47.435Z,100330.41
2023-04-18T12:18:24.927Z,100334.72
2023-04-18T12:20:57.657Z,100342.78
2023-04-18T12:23:49.354Z,100333.62
2023-04-18T12:26:21.404Z,100334.72
2023-04-18T12:28:52.238Z,100334.72
2023-04-18T12:31:27.645Z,100330.12
2023-04-18T12:33:57.480Z,100332.03
2023-04-18T12:36:28.516Z,100329.34
2023-04-18T12:39:07.133Z,100333.62
2023-04-18T12:41:34.579Z,100331.22
2023-04-18T12:44:07.558Z,100335.22
2023-04-18T12:46:37.636Z,100335.22
2023-04-18T12:49:11.389Z,100338.44
2023-04-18T12:51:41.232Z,100337.41
2023-04-18T12:54:08.154Z,100335.78
2023-04-18T12:56:35.162Z,100340.38
2023-04-18T12:59:02.215Z,100337.69
2023-04-18T13:01:31.726Z,100343.34
2023-04-18T13:04:11.715Z,100340.38
2023-04-18T13:06:39.830Z,100337.97
2023-04-18T13:09:13.024Z,100332.59
2023-04-18T13:11:44.378Z,100337.97
2023-04-18T13:14:16.931Z,100340.59
2023-04-18T13:16:49.223Z,100332.03
2023-04-18T13:19:22.213Z,100333.62
2023-04-18T13:21:50.498Z,100336.63
2023-04-18T13:24:21.294Z,100330.94
2023-04-18T13:26:51.185Z,100325.03
2023-04-18T13:29:24.157Z,100339.00
2023-04-18T13:32:02.544Z,100332.03
2023-04-18T13:34:47.659Z,100326.88
2023-04-18T13:37:20.535Z,100324.47
2023-04-18T13:39:56.793Z,100326.06
2023-04-18T13:42:29.802Z,100322.88
2023-04-18T13:45:00.185Z,100317.50
2023-04-18T13:47:27.667Z,100326.88
2023-04-18T13:50:01.623Z,100330.62
2023-04-18T13:52:34.835Z,100326.06
2023-04-18T13:55:02.276Z,100326.06
2023-04-18T13:57:35.584Z,100331.44
2023-04-18T14:00:09.754Z,100333.84
2023-04-18T14:02:40.984Z,100328.97
2023-04-18T14:05:18.012Z,100328.19
2023-04-18T14:07:52.635Z,100320.12
2023-04-18T14:10:29.044Z,100330.31
2023-04-18T14:13:01.095Z,100333.53
2023-04-18T14:15:35.668Z,100325.97
2023-04-18T14:18:14.934Z,100317.88
2023-04-18T14:20:45.795Z,100330.78
2023-04-18T14:23:23.200Z,100330.47
2023-04-18T14:25:59.811Z,100324.81
2023-04-18T14:28:33.989Z,100323.72
2023-04-18T14:31:11.445Z,100322.63
2023-04-18T14:33:48.863Z,100332.31
2023-04-18T14:36:19.054Z,100323.44
2023-04-18T14:38:57.557Z,100327.75
2023-04-18T14:41:31.255Z,100321.59
2023-04-18T14:44:01.413Z,100325.41
2023-04-18T14:46:35.559Z,100325.97
2023-04-18T14:49:09.048Z,100328.16
2023-04-18T14:51:45.564Z,100324.38
2023-04-18T14:54:16.276Z,100330.84
2023-04-18T14:56:47.352Z,100335.13
2023-04-18T14:59:23.385Z,100329.75
2023-04-18T15:02:05.701Z,100329.75
2023-04-18T15:04:38.941Z,100319.78
2023-04-18T15:07:18.411Z,100319.47
2023-04-18T15:09:51.931Z,100317.59
2023-04-18T15:12:32.335Z,100322.41
2023-04-18T15:15:06.383Z,100321.59
2023-04-18T15:17:42.825Z,100324.28
2023-04-18T15:20:16.247Z,100312.44
2023-04-18T15:22:47.735Z,100320.25
2023-04-18T15:25:29.847Z,100319.44
2023-04-18T15:28:09.251Z,100326.97
2023-04-18T15:30:39.239Z,100317.31
2023-04-18T15:33:13.398Z,100314.63
2023-04-18T15:35:45.902Z,100315.44
2023-04-18T15:38:19.328Z,100316.22
2023-04-18T15:40:49.182Z,100313.53
2023-04-18T15:43:22.867Z,100320.81
2023-04-18T15:45:56.432Z,100320.00
2023-04-18T15:48:27.423Z,100317.31
2023-04-18T15:51:00.055Z,100313.53
2023-04-18T15:53:35.985Z,100315.66
2023-04-18T15:56:09.043Z,100316.75
2023-04-18T15:58:39.073Z,100318.34
2023-04-18T16:01:18.112Z,100321.28
2023-04-18T16:03:55.650Z,100323.66
2023-04-18T16:06:28.562Z,100324.19
2023-04-18T16:09:06.183Z,100317.72
2023-04-18T16:11:33.603Z,100335.44
2023-04-18T16:14:03.775Z,100324.41
2023-04-18T16:16:39.719Z,100333.28
2023-04-18T16:19:11.620Z,100325.75
2023-04-18T16:21:40.970Z,100333.28
2023-04-18T16:24:18.635Z,100334.88
2023-04-18T16:26:49.543Z,100337.62
2023-04-18T16:29:27.293Z,100337.12
2023-04-18T16:32:02.266Z,100336.63
2023-04-18T16:34:35.399Z,100332.81
2023-04-18T16:37:05.229Z,100339.81
2023-04-18T16:39:35.890Z,100341.69
2023-04-18T16:42:03.608Z,100334.41
2023-04-18T16:44:36.923Z,100337.41
2023-04-18T16:47:07.875Z,100327.44
2023-04-18T16:49:48.886Z,100332.81
2023-04-18T16:52:19.797Z,100332.03
2023-04-18T16:55:09.055Z,100337.41
2023-04-18T16:57:42.471Z,100338.22
2023-04-18T17:00:18.000Z,100327.44
2023-04-18T17:02:52.873Z,100332.81
2023-04-18T17:05:28.152Z,100325.06
2023-04-18T17:08:09.091Z,100334.72
2023-04-18T17:10:40.922Z,100337.69
2023-04-18T17:13:19.863Z,100336.63
2023-04-18T17:15:54.230Z,100332.03
2023-04-18T17:18:30.734Z,100342.56
2023-04-18T17:21:04.819Z,100335.59
2023-04-18T17:23:42.632Z,100339.88
2023-04-18T17:26:16.750Z,100342.56
2023-04-18T17:28:46.993Z,100349.03
2023-04-18T17:31:17.542Z,100349.31
2023-04-18T17:33:54.139Z,100343.13
2023-04-18T17:36:30.316Z,100352.28
2023-04-18T17:39:05.488Z,100349.88
2023-04-18T17:41:39.464Z,100359.25
2023-04-18T17:44:12.512Z,100359.25
2023-04-18T17:46:43.086Z,100364.66
2023-04-18T17:49:14.677Z,100368.38
2023-04-18T17:51:51.930Z,100393.37
2023-04-18T17:54:26.247Z,100414.09
2023-04-18T17:57:00.493Z,100419.47
2023-04-18T17:59:33.830Z,100426.75
2023-04-18T18:02:04.920Z,100414.09
2023-04-18T18:04:40.201Z,100424.13
2023-04-18T18:07:14.024Z,100421.66
2023-04-18T18:09:44.940Z,100422.47
2023-04-18T18:12:24.133Z,100424.84
2023-04-18T18:14:54.896Z,100422.16
2023-04-18T18:17:29.550Z,100418.97
2023-04-18T18:20:00.231Z,100430.78
2023-04-18T18:22:32.827Z,100432.41
2023-04-18T18:25:02.569Z,100432.41
2023-04-18T18:27:33.728Z,100438.06
2023-04-18T18:30:06.172Z,100443.75
2023-04-18T18:32:49.216Z,100453.94
2023-04-18T18:35:23.158Z,100469.59
2023-04-18T18:37:59.069Z,100466.84
2023-04-18T18:40:38.404Z,100460.69
2023-04-18T18:43:09.125Z,100460.69
2023-04-18T18:45:42.399Z,100470.63
2023-04-18T18:48:19.337Z,100477.37
2023-04-18T18:50:54.184Z,100475.78
2023-04-18T18:53:30.730Z,100480.34
2023-04-18T18:56:04.026Z,100487.87
2023-04-18T18:58:37.562Z,100476.34
2023-04-18T19:01:09.940Z,100473.94
2023-04-18T19:03:43.989Z,100479.56
2023-04-18T19:06:12.453Z,100476.09
2023-04-18T19:08:40.682Z,100472.59
2023-04-18T19:11:14.201Z,100470.72
2023-04-18T19:13:47.627Z,100466.97
2023-04-18T19:16:20.013Z,100471.81
2023-04-18T19:18:56.774Z,100472.91
2023-04-18T19:21:24.593Z,100477.19
2023-04-18T19:23:56.988Z,100473.97
2023-04-18T19:26:31.774Z,100473.97
2023-04-18T19:29:01.403Z,100477.25
2023-04-18T19:31:35.307Z,100483.69
2023-04-18T19:34:06.117Z,100481.00
2023-04-18T19:36:43.502Z,100477.25
2023-04-18T19:39:13.570Z,100482.62
2023-04-18T19:41:48.596Z,100474.00
2023-04-18T19:44:20.080Z,100467.03
2023-04-18T19:46:51.996Z,100460.06
2023-04-18T19:49:22.755Z,100454.69
2023-04-18T19:51:53.190Z,100454.69
2023-04-18T19:54:23.662Z,100455.47
2023-04-18T19:56:59.517Z,100453.06
2023-04-18T19:59:31.666Z,100451.47
2023-04-18T20:02:05.069Z,100456.03
2023-04-18T20:04:38.298Z,100462.50
2023-04-18T20:07:20.023Z,100464.41
2023-04-18T20:09:53.511Z,100466.56
2023-04-18T20:12:33.342Z,100474.63
2023-04-18T20:15:09.865Z,100473.03
2023-04-18T20:17:46.664Z,100470.34
2023-04-18T20:20:17.332Z,100474.13
2023-04-18T20:22:47.025Z,100450.72
2023-04-18T20:25:22.366Z,100447.22
2023-04-18T20:27:55.775Z,100452.88
2023-04-18T20:30:26.284Z,100444.81
2023-04-18T20:32:59.123Z,100441.38
2023-04-18T20:35:30.927Z,100440.81
2023-04-18T20:38:00.928Z,100438.13
2023-04-18T20:40:28.766Z,100437.59
2023-04-18T20:42:58.621Z,100443.75
2023-04-18T20:45:34.002Z,100442.97
2023-04-18T20:48:04.739Z,100445.94
2023-04-18T20:50:41.547Z,100448.91
2023-04-18T20:53:19.697Z,100450.00
2023-04-18T20:55:49.850Z,100446.50
2023-04-18T20:58:16.866Z,100444.91
2023-04-18T21:00:47.113Z,100444.06
2023-04-18T21:03:17.716Z,100444.06
2023-04-18T21:05:47.983Z,100445.69
2023-04-18T21:08:26.630Z,100441.13
2023-04-18T21:11:04.242Z,100438.69
2023-04-18T21:13:43.896Z,100433.91
2023-04-18T21:16:17.257Z,100436.31
2023-04-18T21:18:44.302Z,100440.09
2023-04-18T21:21:16.131Z,100440.87
2023-04-18T21:23:45.780Z,100440.34
2023-04-18T21:26:16.609Z,100443.84
2023-04-18T21:29:02.850Z,100429.59
2023-04-18T21:31:39.802Z,100434.47
2023-04-18T21:34:14.053Z,100434.47
2023-04-18T21:36:48.114Z,100428.28
2023-04-18T21:39:18.259Z,100429.09
2023-04-18T21:41:45.897Z,100424.81
2023-04-18T21:44:19.270Z,100415.12
2023-04-18T21:46:46.679Z,100416.19
2023-04-18T21:49:26.475Z,100421.31
2023-04-18T21:52:00.052Z,100412.44
2023-04-18T21:54:30.568Z,100417.81
2023-04-18T21:57:01.289Z,100413.50
2023-04-18T21:59:29.099Z,100401.16
2023-04-18T22:01:59.387Z,100402.75
2023-04-18T22:04:35.587Z,100395.78
2023-04-18T22:07:02.541Z,100395.78
2023-04-18T22:09:40.948Z,100406.53
2023-04-18T22:12:11.124Z,100402.25
2023-04-18T22:14:48.983Z,100396.34
2023-04-18T22:17:23.046Z,100400.94
2023-04-18T22:19:53.938Z,100395.84
2023-04-18T22:22:27.648Z,100402.28
2023-04-18T22:24:55.266Z,100399.03
2023-04-18T22:27:25.975Z,100403.31
2023-04-18T22:29:56.260Z,100404.72
2023-04-18T22:32:32.487Z,100402.28
2023-04-18T22:35:06.113Z,100406.84
2023-04-18T22:37:37.182Z,100397.50
2023-04-18T22:40:07.706Z,100392.91
2023-04-18T22:42:41.114Z,100388.34
2023-04-18T22:45:12.810Z,100391.56
2023-04-18T22:47:43.424Z,100386.50
2023-04-18T22:50:11.142Z,100386.50
2023-04-18T22:52:40.065Z,100385.66
2023-04-18T22:55:12.406Z,100385.66
2023-04-18T22:57:40.199Z,100376.53
2023-04-18T23:00:14.317Z,100373.84
2023-04-18T23:02:44.450Z,100370.66
2023-04-18T23:05:18.091Z,100371.44
2023-04-18T23:07:54.325Z,100359.13
2023-04-18T23:10:24.441Z,100363.69
2023-04-18T23:12:52.774Z,100359.66
2023-04-18T23:15:22.201Z,100353.50
2023-04-18T23:17:54.154Z,100356.69
2023-04-18T23:20:25.006Z,100357.78
2023-04-18T23:22:55.072Z,100362.66
2023-04-18T23:25:25.668Z,100358.87
2023-04-18T23:28:01.479Z,100352.44
2023-04-18T23:30:35.810Z,100351.38
2023-04-18T23:33:06.082Z,100349.78
2023-04-18T23:35:36.809Z,100341.72
2023-04-18T23:38:04.033Z,100341.72
2023-04-18T23:40:34.734Z,100344.66
2023-04-18T23:43:06.248Z,100338.50
2023-04-18T23:45:36.476Z,100337.97
2023-04-18T23:48:04.101Z,100329.91
2023-04-18T23:50:35.807Z,100326.69
2023-04-18T23:53:10.226Z,100324.56
2023-04-18T23:55:40.621Z,100329.13
2023-04-18T23:58:11.811Z,100321.31
